Time;durP1;ratioP1;P1;durP2;ratioP2;P2;SDS_P1;SDS_P2;PMS_P1;PMS_P2;Temp;Humidity;BMP_temperature;BMP_pressure;BME280_temperature;BME280_humidity;BME280_pressure;Samples;Min_cycle;Max_cycle;Signal;HPM_P1;HPM_P2
2022/04/03 00:00:58;;;;;;;13.98;7.07;;;2.60;99.90;;;;;;5096937;28;20020;-80
2022/04/03 00:03:23;;;;;;;68.80;27.42;;;2.70;99.90;;;;;;5095718;28;20032;-80
2022/04/03 00:05:49;;;;;;;12.43;8.13;;;2.60;99.90;;;;;;5096993;28;20837;-80
2022/04/03 00:08:15;;;;;;;10.18;6.80;;;2.60;99.90;;;;;;5096977;28;20106;-80
2022/04/03 00:10:44;;;;;;;13.98;7.90;;;2.50;99.90;;;;;;5096646;28;20161;-79
2022/04/03 00:13:10;;;;;;;7.43;6.70;;;2.50;99.90;;;;;;5096981;28;20395;-78
2022/04/03 00:15:41;;;;;;;204.13;79.95;;;2.40;99.90;;;;;;5097265;28;20048;-79
2022/04/03 00:18:07;;;;;;;;;;;2.40;99.90;;;;;;5096387;28;20484;-79
2022/04/03 00:20:38;;;;;;;52.75;20.17;;;2.40;99.90;;;;;;5097841;28;19939;-79
2022/04/03 00:23:05;;;;;;;10.52;6.32;;;2.30;99.90;;;;;;5097623;28;20051;-79
2022/04/03 00:25:31;;;;;;;10.25;6.88;;;2.30;99.90;;;;;;5096930;28;20089;-79
2022/04/03 00:27:57;;;;;;;11.18;7.20;;;2.30;99.90;;;;;;5095464;28;20032;-79
2022/04/03 00:30:23;;;;;;;9.15;6.95;;;2.30;99.90;;;;;;5098410;28;20024;-78
2022/04/03 00:32:49;;;;;;;7.00;6.30;;;2.30;99.90;;;;;;5100522;28;20488;-79
2022/04/03 00:35:16;;;;;;;48.30;20.23;;;2.30;99.90;;;;;;5099003;28;20031;-80
2022/04/03 00:37:42;;;;;;;10.25;6.22;;;2.20;99.90;;;;;;5099422;28;20024;-79
2022/04/03 00:40:09;;;;;;;11.55;7.07;;;2.20;99.90;;;;;;5100021;28;20103;-81
2022/04/03 00:42:37;;;;;;;7.78;6.43;;;2.20;99.90;;;;;;5098838;28;20057;-79
2022/04/03 00:45:04;;;;;;;7.82;7.03;;;2.20;99.90;;;;;;5098773;28;20485;-80
2022/04/03 00:47:31;;;;;;;9.88;8.18;;;2.20;99.90;;;;;;5100456;28;20024;-79
2022/04/03 00:49:57;;;;;;;10.70;6.68;;;2.20;99.90;;;;;;5098719;28;20028;-79
2022/04/03 00:52:23;;;;;;;44.05;22.10;;;2.20;99.90;;;;;;5100128;28;20572;-79
2022/04/03 00:54:49;;;;;;;8.40;6.68;;;2.20;99.90;;;;;;5099828;28;20032;-80
2022/04/03 00:57:15;;;;;;;10.75;6.53;;;2.20;99.90;;;;;;5099594;28;20104;-80
2022/04/03 00:59:43;;;;;;;15.88;8.23;;;2.10;99.90;;;;;;5099865;28;20127;-79
2022/04/03 01:02:09;;;;;;;12.77;7.82;;;2.10;99.90;;;;;;5098473;28;20020;-78
2022/04/03 01:04:39;;;;;;;21.27;10.25;;;2.10;99.90;;;;;;5099914;28;20077;-78
2022/04/03 01:07:06;;;;;;;8.65;7.28;;;2.10;99.90;;;;;;5098533;28;20058;-79
2022/04/03 01:09:32;;;;;;;10.00;7.35;;;2.10;99.90;;;;;;5100198;28;20031;-80
2022/04/03 01:11:58;;;;;;;11.93;6.43;;;2.00;99.90;;;;;;5099656;28;20016;-80
2022/04/03 01:14:39;;;;;;;10.93;7.38;;;2.00;99.90;;;;;;5098365;28;20106;-80
2022/04/03 01:17:06;;;;;;;10.18;7.72;;;2.00;99.90;;;;;;5098355;28;20024;-80
2022/04/03 01:19:32;;;;;;;7.32;6.63;;;2.00;99.90;;;;;;5098485;28;20032;-81
2022/04/03 01:21:59;;;;;;;7.43;6.72;;;2.00;99.90;;;;;;5098169;28;20020;-80
2022/04/03 01:24:25;;;;;;;11.73;7.68;;;1.90;99.90;;;;;;5098282;28;20056;-80
2022/04/03 01:26:52;;;;;;;6.95;6.20;;;1.90;99.90;;;;;;5097744;28;20062;-80
2022/04/03 01:29:19;;;;;;;8.23;6.57;;;1.90;99.90;;;;;;5091892;28;20025;-80
2022/04/03 01:31:46;;;;;;;7.63;6.50;;;1.90;99.90;;;;;;5091999;28;20511;-80
2022/04/03 01:34:13;;;;;;;8.93;6.60;;;1.90;99.90;;;;;;5098317;28;20022;-81
2022/04/03 01:36:39;;;;;;;6.82;6.15;;;1.90;99.90;;;;;;5097825;28;20012;-80
2022/04/03 01:39:05;;;;;;;8.60;6.65;;;1.90;99.90;;;;;;5098101;28;20035;-81
2022/04/03 01:41:31;;;;;;;9.15;6.20;;;1.90;99.90;;;;;;5098042;28;20103;-81
2022/04/03 01:43:57;;;;;;;10.88;6.68;;;1.90;99.90;;;;;;5098157;28;20462;-79
2022/04/03 01:46:23;;;;;;;7.43;6.80;;;1.90;99.90;;;;;;5099208;28;20020;-80
2022/04/03 01:48:49;;;;;;;9.02;6.70;;;1.90;99.90;;;;;;5098186;28;20055;-81
2022/04/03 01:51:15;;;;;;;11.05;6.93;;;1.90;99.90;;;;;;5100092;28;20020;-81
2022/04/03 01:53:41;;;;;;;9.82;8.15;;;1.90;99.90;;;;;;5096333;28;20032;-81
2022/04/03 01:56:08;;;;;;;19.17;10.75;;;1.80;99.90;;;;;;5098199;28;20099;-80
2022/04/03 01:58:34;;;;;;;7.13;6.40;;;1.80;99.90;;;;;;5098044;28;20032;-80
2022/04/03 02:01:04;;;;;;;7.60;6.45;;;1.80;99.90;;;;;;5097916;28;20442;-81
2022/04/03 02:03:30;;;;;;;20.35;11.38;;;1.80;99.90;;;;;;5099292;28;20024;-80
2022/04/03 02:05:57;;;;;;;14.38;9.00;;;1.70;99.90;;;;;;5098824;28;20028;-81
2022/04/03 02:08:25;;;;;;;10.88;6.80;;;1.60;99.90;;;;;;5099208;28;20539;-82
2022/04/03 02:10:51;;;;;;;9.85;6.70;;;1.60;99.90;;;;;;5098957;28;20031;-81
2022/04/03 02:13:17;;;;;;;11.25;7.18;;;1.50;99.90;;;;;;5099083;28;20024;-81
2022/04/03 02:15:43;;;;;;;8.45;6.70;;;1.60;99.90;;;;;;5097733;28;20024;-80
2022/04/03 02:18:09;;;;;;;7.75;6.80;;;1.60;99.90;;;;;;5098938;28;20081;-80
2022/04/03 02:20:36;;;;;;;7.28;6.63;;;1.60;99.90;;;;;;5098824;28;20031;-81
2022/04/03 02:23:03;;;;;;;9.23;6.72;;;1.60;99.90;;;;;;5098999;28;20073;-80
2022/04/03 02:25:30;;;;;;;8.73;6.70;;;1.60;99.90;;;;;;5100202;28;20024;-81
2022/04/03 02:27:57;;;;;;;7.18;6.35;;;1.60;99.90;;;;;;5100686;28;20028;-81
2022/04/03 02:30:24;;;;;;;7.35;6.68;;;1.50;99.90;;;;;;5099651;28;20454;-81
2022/04/03 02:32:49;;;;;;;7.70;7.00;;;1.50;99.90;;;;;;5100325;28;20537;-80
2022/04/03 02:35:15;;;;;;;7.65;6.75;;;1.50;99.90;;;;;;5100327;28;20024;-82
2022/04/03 02:37:43;;;;;;;9.63;6.55;;;1.50;99.90;;;;;;5098759;28;20119;-79
2022/04/03 02:40:11;;;;;;;12.13;7.30;;;1.50;99.90;;;;;;5098286;28;20030;-82
2022/04/03 02:42:37;;;;;;;8.88;6.90;;;1.40;99.90;;;;;;5100082;28;20165;-81
2022/04/03 02:45:05;;;;;;;14.52;8.13;;;1.40;99.90;;;;;;5099665;28;20082;-81
2022/04/03 02:47:32;;;;;;;7.40;6.45;;;1.40;99.90;;;;;;5099847;28;20024;-82
2022/04/03 02:49:59;;;;;;;9.73;7.60;;;1.40;99.90;;;;;;5098441;28;20030;-81
2022/04/03 02:52:24;;;;;;;7.93;7.10;;;1.40;99.90;;;;;;5097212;28;20024;-80
2022/04/03 02:54:50;;;;;;;8.70;6.53;;;1.40;99.90;;;;;;5096351;28;20016;-81
2022/04/03 02:57:17;;;;;;;10.57;6.78;;;1.40;99.90;;;;;;5097735;28;20042;-80
2022/04/03 02:59:44;;;;;;;7.35;6.43;;;1.40;99.90;;;;;;5097665;28;20571;-80
2022/04/03 03:02:11;;;;;;;7.65;6.75;;;1.40;99.90;;;;;;5096395;28;20050;-79
2022/04/03 03:04:38;;;;;;;10.02;6.68;;;1.50;99.90;;;;;;5097588;28;20081;-81
2022/04/03 03:07:05;;;;;;;9.20;7.30;;;1.40;99.90;;;;;;5096277;28;20028;-81
2022/04/03 03:09:31;;;;;;;11.35;8.15;;;1.50;99.90;;;;;;5096189;28;20058;-80
2022/04/03 03:11:59;;;;;;;8.05;7.25;;;1.50;99.90;;;;;;5096142;28;20037;-78
2022/04/03 03:14:25;;;;;;;9.35;6.60;;;1.50;99.90;;;;;;5082193;28;20496;-80
2022/04/03 03:16:50;;;;;;;54.20;21.70;;;1.40;99.90;;;;;;5078356;28;20397;-81
2022/04/03 03:19:16;;;;;;;195.88;65.65;;;1.40;99.90;;;;;;5079869;28;20024;-79
2022/04/03 03:21:43;;;;;;;7.78;7.00;;;1.40;99.90;;;;;;5081206;28;20048;-80
2022/04/03 03:24:09;;;;;;;8.38;7.50;;;1.40;99.90;;;;;;5080008;28;20031;-79
2022/04/03 03:26:36;;;;;;;13.57;7.75;;;1.40;99.90;;;;;;5078411;28;20024;-80
2022/04/03 03:29:02;;;;;;;14.32;8.38;;;1.40;99.90;;;;;;5079905;28;20024;-79
2022/04/03 03:31:28;;;;;;;13.07;8.23;;;1.40;99.90;;;;;;5079119;28;20020;-79
2022/04/03 03:33:54;;;;;;;10.18;6.75;;;1.40;99.90;;;;;;5080845;28;20108;-80
2022/04/03 03:36:20;;;;;;;10.10;7.22;;;1.40;99.90;;;;;;5082133;28;20017;-79
2022/04/03 03:38:46;;;;;;;8.82;8.02;;;1.40;99.90;;;;;;5078843;28;20035;-80
2022/04/03 03:41:14;;;;;;;8.43;7.20;;;1.40;99.90;;;;;;5077658;28;20036;-80
2022/04/03 03:43:41;;;;;;;9.73;7.38;;;1.40;99.90;;;;;;5078310;28;20024;-80
2022/04/03 03:46:08;;;;;;;11.48;6.97;;;1.30;99.90;;;;;;5079420;28;20120;-81
2022/04/03 03:48:35;;;;;;;7.63;6.88;;;1.30;99.90;;;;;;5079396;28;20016;-81
2022/04/03 03:51:01;;;;;;;10.10;7.57;;;1.30;99.90;;;;;;5077431;28;20024;-81
2022/04/03 03:53:27;;;;;;;8.85;6.57;;;1.40;99.90;;;;;;5079233;28;20013;-80
2022/04/03 03:55:53;;;;;;;8.52;7.68;;;1.30;99.90;;;;;;5077316;28;20023;-79
2022/04/03 03:58:19;;;;;;;12.68;10.35;;;1.30;99.90;;;;;;5081728;28;20100;-80
2022/04/03 04:00:45;;;;;;;8.55;7.65;;;1.30;99.90;;;;;;5090454;28;20024;-81
2022/04/03 04:03:13;;;;;;;8.82;7.95;;;1.30;99.90;;;;;;5097059;28;20047;-81
2022/04/03 04:05:40;;;;;;;8.77;7.90;;;1.30;99.90;;;;;;5100744;28;20074;-80
2022/04/03 04:08:07;;;;;;;8.57;7.75;;;1.30;99.90;;;;;;5083694;28;20032;-81
2022/04/03 04:10:33;;;;;;;12.23;7.40;;;1.30;99.90;;;;;;5083652;28;20023;-81
2022/04/03 04:13:00;;;;;;;10.05;7.43;;;1.40;99.90;;;;;;5097573;28;20020;-81
2022/04/03 04:15:27;;;;;;;8.95;7.55;;;1.40;99.90;;;;;;5099745;28;20035;-81
2022/04/03 04:17:54;;;;;;;8.18;7.25;;;1.50;99.90;;;;;;5093990;28;20405;-81
2022/04/03 04:20:21;;;;;;;8.95;7.43;;;1.50;99.90;;;;;;5089635;28;20049;-81
2022/04/03 04:22:49;;;;;;;10.43;8.75;;;1.50;99.90;;;;;;5083230;28;20048;-81
2022/04/03 04:25:16;;;;;;;9.70;8.82;;;1.60;99.90;;;;;;5082438;28;20032;-79
2022/04/03 04:27:44;;;;;;;12.20;7.85;;;1.60;99.90;;;;;;5098216;28;20365;-81
2022/04/03 04:30:11;;;;;;;9.30;6.93;;;1.60;99.90;;;;;;5100843;28;20044;-79
2022/04/03 04:32:37;;;;;;;8.80;7.80;;;1.70;99.90;;;;;;5099309;28;20024;-79
2022/04/03 04:35:04;;;;;;;10.32;7.20;;;1.70;99.90;;;;;;5099392;28;20107;-80
2022/04/03 04:37:30;;;;;;;13.40;8.32;;;1.70;99.90;;;;;;5100721;28;20023;-80
2022/04/03 04:39:56;;;;;;;11.93;8.65;;;1.80;99.90;;;;;;5097943;28;20039;-80
2022/04/03 04:42:22;;;;;;;8.90;7.95;;;1.80;99.90;;;;;;5099027;28;20024;-80
2022/04/03 04:44:48;;;;;;;9.70;7.50;;;1.80;99.90;;;;;;5099585;28;20122;-80
2022/04/03 04:47:14;;;;;;;13.43;7.65;;;1.80;99.90;;;;;;5097561;28;20047;-81
2022/04/03 04:49:40;;;;;;;18.77;9.48;;;1.80;99.90;;;;;;5099271;28;20028;-80
2022/04/03 04:52:06;;;;;;;13.10;9.23;;;1.80;99.90;;;;;;5099186;28;20040;-80
2022/04/03 04:54:32;;;;;;;8.80;7.90;;;1.80;99.90;;;;;;5101730;28;20035;-81
2022/04/03 04:56:59;;;;;;;12.52;8.77;;;1.80;99.90;;;;;;5100563;28;20020;-80
2022/04/03 04:59:25;;;;;;;18.15;9.48;;;1.80;99.90;;;;;;5100399;28;20020;-79
2022/04/03 05:01:51;;;;;;;13.52;9.27;;;1.80;99.90;;;;;;5098771;28;20103;-80
2022/04/03 05:04:16;;;;;;;12.02;8.60;;;1.80;99.90;;;;;;5099747;28;20024;-80
2022/04/03 05:06:43;;;;;;;9.05;7.97;;;1.80;99.90;;;;;;5099891;28;20027;-79
2022/04/03 05:09:09;;;;;;;11.65;7.97;;;1.80;99.90;;;;;;5099826;28;20056;-80
2022/04/03 05:11:39;;;;;;;17.13;11.23;;;1.80;99.90;;;;;;5099495;28;20027;-81
2022/04/03 05:14:06;;;;;;;13.83;9.83;;;1.80;99.90;;;;;;5099711;28;20032;-80
2022/04/03 05:16:32;;;;;;;13.15;9.07;;;1.70;99.90;;;;;;5099615;28;20255;-81
2022/04/03 05:18:58;;;;;;;10.43;8.23;;;1.70;99.90;;;;;;5098056;28;20412;-80
2022/04/03 05:21:24;;;;;;;15.35;9.30;;;1.70;99.90;;;;;;5099595;28;20032;-81
2022/04/03 05:23:50;;;;;;;16.70;8.75;;;1.70;99.90;;;;;;5099314;28;20534;-80
2022/04/03 05:26:19;;;;;;;16.17;10.00;;;1.70;99.90;;;;;;5099311;28;20442;-79
2022/04/03 05:28:45;;;;;;;14.55;9.18;;;1.70;99.90;;;;;;5094783;28;20386;-80
2022/04/03 05:31:11;;;;;;;13.90;8.82;;;1.80;99.90;;;;;;5087852;28;20043;-80
2022/04/03 05:33:37;;;;;;;13.10;9.70;;;1.80;99.90;;;;;;5096385;28;20020;-81
2022/04/03 05:36:04;;;;;;;16.27;9.98;;;1.80;99.90;;;;;;5098059;28;20052;-79
2022/04/03 05:38:30;;;;;;;10.82;9.35;;;1.80;99.90;;;;;;5097874;28;20024;-80
2022/04/03 05:40:56;;;;;;;11.05;9.35;;;1.80;99.90;;;;;;5097978;28;20032;-81
2022/04/03 05:43:22;;;;;;;12.75;9.73;;;1.90;99.90;;;;;;5099276;28;20035;-80
2022/04/03 05:45:48;;;;;;;13.07;9.38;;;1.90;99.90;;;;;;5099072;28;20052;-80
2022/04/03 05:48:14;;;;;;;20.95;9.65;;;1.90;99.90;;;;;;5100948;28;20016;-80
2022/04/03 05:50:40;;;;;;;13.00;9.68;;;1.90;99.90;;;;;;5099059;28;20047;-80
2022/04/03 05:53:06;;;;;;;19.38;10.20;;;1.90;99.90;;;;;;5094583;28;20034;-80
2022/04/03 05:55:32;;;;;;;17.95;9.93;;;1.90;99.90;;;;;;5098573;28;20022;-81
2022/04/03 05:57:58;;;;;;;12.10;10.60;;;1.90;99.90;;;;;;5097362;28;20020;-80
2022/04/03 06:00:24;;;;;;;15.68;10.05;;;1.90;99.90;;;;;;5092689;28;20078;-81
2022/04/03 06:02:55;;;;;;;15.07;11.10;;;2.00;99.90;;;;;;5095365;28;20508;-80
2022/04/03 06:05:29;;;;;;;17.85;11.43;;;2.00;99.90;;;;;;5096693;28;20092;-81
2022/04/03 06:07:55;;;;;;;15.20;11.77;;;2.00;99.90;;;;;;5085821;28;20028;-81
2022/04/03 06:10:23;;;;;;;13.38;11.40;;;2.10;99.90;;;;;;5092506;28;20104;-79
2022/04/03 06:13:04;;;;;;;16.02;10.60;;;2.10;99.90;;;;;;5097216;28;20020;-80
2022/04/03 06:15:34;;;;;;;;;;;2.10;99.90;;;;;;5099042;28;20024;-81
2022/04/03 06:18:05;;;;;;;18.42;11.93;;;2.20;99.90;;;;;;5097832;28;19930;-80
2022/04/03 06:20:32;;;;;;;13.77;11.45;;;2.20;99.90;;;;;;5097970;28;20031;-80
2022/04/03 06:22:57;;;;;;;15.88;11.30;;;2.30;99.90;;;;;;5099003;28;20032;-80
2022/04/03 06:25:23;;;;;;;22.80;11.30;;;2.30;99.90;;;;;;5099723;28;20419;-81
2022/04/03 06:27:52;;;;;;;16.58;11.80;;;2.40;99.90;;;;;;5100320;28;20089;-79
2022/04/03 06:30:18;;;;;;;17.63;11.30;;;2.40;99.90;;;;;;5099149;28;20116;-80
2022/04/03 06:32:44;;;;;;;12.80;10.55;;;2.50;99.90;;;;;;5100404;28;20393;-80
2022/04/03 06:35:10;;;;;;;19.15;11.23;;;2.50;99.90;;;;;;5098953;28;20077;-81
2022/04/03 06:37:36;;;;;;;15.32;11.77;;;2.60;99.90;;;;;;5100215;28;20031;-82
2022/04/03 06:40:03;;;;;;;18.77;11.48;;;2.70;99.90;;;;;;5098473;28;20024;-81
2022/04/03 06:42:31;;;;;;;20.80;10.90;;;2.70;99.90;;;;;;5098357;28;20024;-80
2022/04/03 06:44:58;;;;;;;19.02;11.65;;;2.70;99.90;;;;;;5098533;28;20081;-80
2022/04/03 06:47:24;;;;;;;17.60;10.38;;;2.70;99.90;;;;;;5097573;28;20028;-81
2022/04/03 06:49:50;;;;;;;20.40;10.85;;;2.80;99.90;;;;;;5098574;28;20099;-81
2022/04/03 06:52:16;;;;;;;17.63;11.55;;;2.90;99.90;;;;;;5097437;28;20035;-81
2022/04/03 06:54:42;;;;;;;15.23;10.23;;;2.90;99.90;;;;;;5097896;28;20016;-80
2022/04/03 06:57:09;;;;;;;15.27;10.90;;;3.00;99.90;;;;;;5067287;28;20020;-81
2022/04/03 06:59:34;;;;;;;18.77;10.73;;;3.00;99.90;;;;;;5062244;28;20016;-81
2022/04/03 07:02:02;;;;;;;14.68;10.35;;;3.10;99.90;;;;;;5060496;28;20020;-80
2022/04/03 07:04:28;;;;;;;14.30;10.68;;;3.20;99.90;;;;;;5096087;28;20016;-81
2022/04/03 07:06:54;;;;;;;12.40;9.70;;;3.10;99.90;;;;;;5095859;28;20389;-81
2022/04/03 07:09:19;;;;;;;18.38;11.85;;;3.20;99.90;;;;;;5097347;28;20024;-81
2022/04/03 07:11:45;;;;;;;17.00;11.70;;;3.40;99.90;;;;;;5095720;28;20495;-80
2022/04/03 07:14:11;;;;;;;11.57;9.38;;;3.50;99.90;;;;;;5097349;28;20027;-81
2022/04/03 07:16:37;;;;;;;19.25;11.10;;;3.60;99.90;;;;;;5097459;28;20447;-80
2022/04/03 07:19:04;;;;;;;12.98;9.80;;;3.70;99.90;;;;;;5096073;28;20419;-80
2022/04/03 07:21:31;;;;;;;15.35;9.15;;;3.70;99.90;;;;;;5096242;28;20024;-80
2022/04/03 07:23:56;;;;;;;12.13;9.52;;;3.80;99.90;;;;;;5097172;28;20032;-80
2022/04/03 07:26:22;;;;;;;14.05;10.00;;;3.80;99.90;;;;;;5095658;28;20068;-80
2022/04/03 07:28:48;;;;;;;12.65;9.43;;;3.80;99.90;;;;;;5086775;28;20025;-81
2022/04/03 07:31:14;;;;;;;14.90;10.75;;;3.90;99.90;;;;;;5087282;28;20031;-80
2022/04/03 07:33:40;;;;;;;13.27;10.57;;;3.90;99.90;;;;;;5097164;28;20044;-80
2022/04/03 07:36:06;;;;;;;14.57;9.52;;;3.80;99.90;;;;;;5092813;28;20024;-79
2022/04/03 07:38:31;;;;;;;12.90;9.20;;;3.90;99.90;;;;;;5083173;28;20073;-81
2022/04/03 07:40:57;;;;;;;17.33;10.18;;;3.90;99.90;;;;;;5100649;28;20103;-80
2022/04/03 07:43:23;;;;;;;12.05;9.95;;;3.90;99.90;;;;;;5102003;28;20510;-79
2022/04/03 07:45:49;;;;;;;12.45;8.95;;;4.00;99.90;;;;;;5080681;28;20045;-80
2022/04/03 07:48:19;;;;;;;14.90;10.57;;;4.10;99.90;;;;;;5081446;28;20070;-79
2022/04/03 07:50:45;;;;;;;11.60;8.93;;;4.10;99.90;;;;;;5081586;28;20033;-80
2022/04/03 07:53:11;;;;;;;11.48;9.23;;;4.20;99.90;;;;;;5079276;28;20021;-82
2022/04/03 07:55:37;;;;;;;12.40;9.75;;;4.30;99.90;;;;;;5080061;28;20032;-82
2022/04/03 07:58:03;;;;;;;14.52;9.88;;;4.30;99.90;;;;;;5075951;28;20481;-81
2022/04/03 08:00:29;;;;;;;11.43;9.48;;;4.40;99.90;;;;;;5079397;28;20058;-82
2022/04/03 08:02:55;;;;;;;14.05;9.13;;;4.50;99.90;;;;;;5079302;28;20026;-83
2022/04/03 08:05:21;;;;;;;10.93;8.93;;;4.60;99.90;;;;;;5080786;28;20082;-81
2022/04/03 08:07:48;;;;;;;9.57;8.68;;;4.60;99.90;;;;;;5079542;28;20029;-82
2022/04/03 08:10:16;;;;;;;17.20;9.98;;;4.70;99.90;;;;;;5081016;28;20088;-83
2022/04/03 08:12:43;;;;;;;10.48;8.52;;;4.80;99.90;;;;;;5080351;28;20027;-82
2022/04/03 08:15:10;;;;;;;11.82;8.38;;;4.90;99.90;;;;;;5080529;28;20092;-82
2022/04/03 08:17:40;;;;;;;12.75;9.15;;;5.00;99.90;;;;;;5078999;28;20033;-82
2022/04/03 08:20:12;;;;;;;9.40;8.02;;;5.10;99.60;;;;;;5079246;28;20037;-81
2022/04/03 08:22:41;;;;;;;11.13;8.43;;;5.20;99.90;;;;;;5080547;28;20514;-83
2022/04/03 08:25:08;;;;;;;14.00;10.47;;;5.40;99.90;;;;;;5078913;28;20416;-82
2022/04/03 08:27:40;;;;;;;12.48;9.60;;;5.40;99.90;;;;;;5060057;28;20287;-84
2022/04/03 08:30:07;;;;;;;13.27;7.82;;;5.50;99.90;;;;;;5058800;28;20096;-84
2022/04/03 08:32:32;;;;;;;13.55;9.25;;;5.40;99.90;;;;;;5062284;28;20025;-82
2022/04/03 08:34:58;;;;;;;10.43;9.30;;;5.50;99.90;;;;;;5064222;28;20032;-80
2022/04/03 08:37:24;;;;;;;16.25;9.45;;;5.60;99.20;;;;;;5077765;28;20051;-82
2022/04/03 08:39:50;;;;;;;11.15;8.15;;;5.80;99.90;;;;;;5073571;28;20020;-82
2022/04/03 08:42:16;;;;;;;10.48;8.18;;;5.80;99.90;;;;;;5078606;28;20035;-82
2022/04/03 08:44:42;;;;;;;10.45;8.75;;;5.90;99.30;;;;;;5089976;28;20072;-82
2022/04/03 08:47:09;;;;;;;9.40;7.15;;;5.90;98.60;;;;;;5100413;28;20024;-83
2022/04/03 08:49:38;;;;;;;9.02;7.82;;;5.90;97.80;;;;;;5099085;28;20031;-83
2022/04/03 08:52:06;;;;;;;12.43;8.68;;;5.90;97.50;;;;;;5100919;28;20020;-83
2022/04/03 08:54:32;;;;;;;10.10;8.68;;;5.80;97.10;;;;;;5098995;28;20027;-81
2022/04/03 08:56:58;;;;;;;14.02;9.23;;;5.70;96.80;;;;;;5098746;28;20020;-82
2022/04/03 08:59:24;;;;;;;10.20;8.85;;;5.80;98.10;;;;;;5099409;28;20039;-82
2022/04/03 09:01:50;;;;;;;10.48;9.32;;;5.80;98.70;;;;;;5096932;28;20017;-82
2022/04/03 09:04:17;;;;;;;11.80;9.00;;;6.00;98.00;;;;;;5094395;28;20028;-83
2022/04/03 09:06:55;;;;;;;9.65;7.85;;;6.20;98.60;;;;;;5090657;28;20012;-82
2022/04/03 09:09:25;;;;;;;10.27;8.43;;;6.40;96.10;;;;;;5100790;28;20103;-82
2022/04/03 09:12:16;;;;;;;8.85;7.95;;;6.50;94.60;;;;;;5100612;28;20024;-82
2022/04/03 09:14:53;;;;;;;9.48;8.13;;;6.70;94.30;;;;;;5098624;28;20485;-79
2022/04/03 09:17:38;;;;;;;9.00;8.00;;;6.90;93.50;;;;;;5092223;28;20058;-81
2022/04/03 09:20:08;;;;;;;10.30;8.57;;;7.00;92.40;;;;;;5096354;28;20020;-79
2022/04/03 09:22:37;;;;;;;13.90;8.40;;;7.20;93.70;;;;;;5090950;28;20107;-80
2022/04/03 09:25:05;;;;;;;9.45;8.13;;;7.10;91.60;;;;;;5086556;28;20039;-78
2022/04/03 09:27:34;;;;;;;8.90;7.50;;;7.20;92.40;;;;;;5095103;28;20028;-79
2022/04/03 09:30:07;;;;;;;106.00;42.53;;;7.20;90.60;;;;;;5098301;28;20088;-81
2022/04/03 09:32:44;;;;;;;12.73;8.10;;;7.00;90.70;;;;;;5086525;28;20153;-77
2022/04/03 09:35:11;;;;;;;13.75;9.02;;;7.00;91.50;;;;;;5097044;28;20036;-78
2022/04/03 09:37:37;;;;;;;8.02;7.18;;;7.10;92.40;;;;;;5097717;28;20024;-76
2022/04/03 09:40:03;;;;;;;8.80;7.63;;;7.10;90.70;;;;;;5097401;28;20028;-83
2022/04/03 09:42:30;;;;;;;11.13;8.27;;;7.00;90.60;;;;;;5097888;28;20047;-82
2022/04/03 09:44:55;;;;;;;10.55;8.68;;;7.00;90.90;;;;;;5098060;28;20063;-79
2022/04/03 09:47:29;;;;;;;8.00;7.20;;;7.00;90.50;;;;;;5099527;28;20020;-81
2022/04/03 09:50:05;;;;;;;9.43;7.72;;;7.10;90.70;;;;;;5100132;28;20103;-83
2022/04/03 09:52:43;;;;;;;8.02;7.22;;;7.10;91.00;;;;;;5098622;28;20020;-82
2022/04/03 09:55:24;;;;;;;9.82;7.47;;;7.00;87.90;;;;;;5097370;28;20377;-82
2022/04/03 09:58:02;;;;;;;12.45;8.48;;;7.10;89.80;;;;;;5097299;28;20020;-80
2022/04/03 10:00:30;;;;;;;9.30;7.55;;;7.20;91.00;;;;;;5087634;28;20062;-79
2022/04/03 10:03:02;;;;;;;12.57;8.43;;;7.10;87.70;;;;;;5096431;28;20024;-84
2022/04/03 10:05:36;;;;;;;10.73;8.05;;;7.10;88.70;;;;;;5096621;28;20536;-82
2022/04/03 10:08:04;;;;;;;11.05;7.60;;;7.00;88.10;;;;;;5098742;28;20056;-82
2022/04/03 10:10:32;;;;;;;9.65;7.75;;;6.90;86.50;;;;;;5098868;28;20027;-83
2022/04/03 10:12:58;;;;;;;10.00;6.93;;;6.80;85.50;;;;;;5091363;28;20396;-80
2022/04/03 10:15:26;;;;;;;7.25;6.25;;;6.70;86.40;;;;;;5096789;28;20020;-81
2022/04/03 10:17:52;;;;;;;9.23;7.80;;;6.60;87.90;;;;;;5098602;28;20067;-84
2022/04/03 10:20:18;;;;;;;11.13;7.72;;;6.60;90.20;;;;;;5093038;28;20028;-87
2022/04/03 10:22:51;;;;;;;10.23;8.07;;;6.60;89.50;;;;;;5080732;28;20066;-85
2022/04/03 10:25:24;;;;;;;10.23;8.98;;;6.50;89.90;;;;;;5089362;28;20032;-85
2022/04/03 10:27:51;;;;;;;12.45;8.95;;;6.60;91.00;;;;;;5084543;28;20020;-84
2022/04/03 10:30:17;;;;;;;13.32;8.65;;;6.70;91.10;;;;;;5080806;28;20032;-84
2022/04/03 10:32:56;;;;;;;11.93;8.80;;;6.90;92.70;;;;;;5082295;28;20020;-85
2022/04/03 10:35:22;;;;;;;12.25;8.77;;;7.10;91.60;;;;;;5081295;28;20508;-86
2022/04/03 10:38:05;;;;;;;10.98;8.07;;;7.10;90.50;;;;;;5090950;28;20020;-84
2022/04/03 10:40:33;;;;;;;12.52;7.88;;;7.10;91.20;;;;;;5101575;28;20027;-83
2022/04/03 10:43:06;;;;;;;10.15;7.78;;;7.20;91.30;;;;;;5101293;28;20032;-83
2022/04/03 10:45:34;;;;;;;15.18;9.38;;;7.20;90.60;;;;;;5100325;28;20055;-84
2022/04/03 10:48:19;;;;;;;9.68;7.80;;;7.20;92.10;;;;;;5100004;28;20020;-83
2022/04/03 10:51:04;;;;;;;11.85;8.55;;;7.50;90.90;;;;;;5099405;28;20028;-82
2022/04/03 10:53:34;;;;;;;11.50;8.50;;;7.80;88.30;;;;;;5098534;28;20072;-84
2022/04/03 10:56:07;;;;;;;11.02;7.38;;;7.90;88.60;;;;;;5099482;28;20023;-83
2022/04/03 10:58:42;;;;;;;9.00;7.90;;;8.00;88.00;;;;;;5098363;28;20492;-84
2022/04/03 11:01:11;;;;;;;10.38;8.25;;;7.90;87.80;;;;;;5101204;28;20020;-84
2022/04/03 11:03:38;;;;;;;8.60;6.68;;;7.90;88.10;;;;;;5102143;28;20027;-84
2022/04/03 11:06:24;;;;;;;9.32;8.27;;;7.60;86.50;;;;;;5102022;28;20020;-83
2022/04/03 11:08:57;;;;;;;9.68;7.55;;;7.20;87.60;;;;;;5097355;28;20051;-83
2022/04/03 11:11:42;;;;;;;9.20;7.90;;;7.00;87.50;;;;;;5102041;28;20018;-85
2022/04/03 11:14:10;;;;;;;11.70;8.52;;;6.80;87.30;;;;;;5090090;28;20032;-85
2022/04/03 11:16:53;;;;;;;10.10;8.55;;;6.70;87.90;;;;;;5078090;28;20506;-84
2022/04/03 11:19:41;;;;;;;13.82;9.07;;;6.60;89.00;;;;;;5097536;28;20020;-84
2022/04/03 11:22:10;;;;;;;11.20;9.05;;;6.50;90.60;;;;;;5094767;28;20012;-84
2022/04/03 11:24:37;;;;;;;12.15;9.40;;;6.50;91.30;;;;;;5098139;28;20051;-84
2022/04/03 11:27:05;;;;;;;10.95;7.70;;;6.40;91.00;;;;;;5096403;28;20411;-84
2022/04/03 11:29:32;;;;;;;12.38;8.82;;;6.30;91.60;;;;;;5097387;28;20030;-86
2022/04/03 11:31:57;;;;;;;8.00;7.20;;;6.30;92.50;;;;;;5097380;28;20016;-86
2022/04/03 11:34:33;;;;;;;10.27;9.02;;;6.20;92.50;;;;;;5096016;28;20035;-84
2022/04/03 11:37:02;;;;;;;11.35;8.65;;;6.20;93.20;;;;;;5094901;28;20016;-85
2022/04/03 11:39:33;;;;;;;10.80;8.90;;;6.10;93.20;;;;;;5084994;28;20055;-83
2022/04/03 11:42:06;;;;;;;12.13;9.20;;;6.00;93.80;;;;;;5089119;28;20057;-84
2022/04/03 11:44:34;;;;;;;9.48;7.18;;;6.10;94.10;;;;;;5096017;28;20048;-84
2022/04/03 11:47:01;;;;;;;9.68;8.35;;;6.30;93.70;;;;;;5094669;28;20084;-83
2022/04/03 11:49:30;;;;;;;10.27;8.70;;;6.30;92.50;;;;;;5095207;28;20032;-85
2022/04/03 11:52:04;;;;;;;7.07;6.40;;;6.30;92.40;;;;;;5074496;28;20025;-84
2022/04/03 11:54:30;;;;;;;13.48;8.45;;;6.40;91.80;;;;;;5077097;28;20044;-83
2022/04/03 11:57:10;;;;;;;14.73;8.65;;;6.60;92.20;;;;;;5080594;28;20115;-83
2022/04/03 11:59:38;;;;;;;11.98;9.40;;;6.80;91.70;;;;;;5076674;28;20045;-84
2022/04/03 12:02:11;;;;;;;11.38;9.27;;;6.90;91.30;;;;;;5078866;28;20108;-85
2022/04/03 12:04:41;;;;;;;14.25;9.05;;;6.90;91.00;;;;;;5081368;28;20020;-83
2022/04/03 12:07:14;;;;;;;10.15;8.85;;;7.00;90.80;;;;;;5089064;28;20020;-82
2022/04/03 12:09:46;;;;;;;9.98;8.95;;;7.10;91.30;;;;;;5094279;28;20044;-83
2022/04/03 12:12:12;;;;;;;12.43;8.93;;;7.20;89.00;;;;;;5094250;28;20103;-83
2022/04/03 12:14:42;;;;;;;14.48;9.90;;;7.30;89.20;;;;;;5092700;28;20027;-83
2022/04/03 12:17:13;;;;;;;11.45;9.20;;;7.50;89.60;;;;;;5095830;28;20024;-83
2022/04/03 12:19:44;;;;;;;;;;;7.60;89.60;;;;;;5097591;28;20067;-83
2022/04/03 12:22:12;;;;;;;8.57;7.78;;;7.60;89.20;;;;;;5096969;28;20280;-83
2022/04/03 12:24:39;;;;;;;22.95;9.07;;;7.60;89.00;;;;;;5098066;28;20047;-82
2022/04/03 12:27:12;;;;;;;10.07;8.38;;;7.50;88.70;;;;;;5100608;28;20024;-82
2022/04/03 12:29:40;;;;;;;11.45;8.50;;;7.50;88.80;;;;;;5094865;28;20032;-84
2022/04/03 12:32:19;;;;;;;11.15;9.40;;;7.40;88.60;;;;;;5097103;28;20027;-83
2022/04/03 12:34:50;;;;;;;9.77;8.88;;;7.50;90.00;;;;;;5099242;28;20073;-82
2022/04/03 12:37:17;;;;;;;10.10;8.57;;;7.70;88.70;;;;;;5098399;28;20074;-82
2022/04/03 12:40:00;;;;;;;9.13;8.13;;;7.80;84.30;;;;;;5096996;28;20024;-83
2022/04/03 12:42:34;;;;;;;18.95;9.32;;;7.90;84.40;;;;;;5097780;28;20035;-83
2022/04/03 12:45:10;;;;;;;14.80;8.73;;;7.90;86.70;;;;;;5090360;28;20416;-85
2022/04/03 12:48:01;;;;;;;10.60;8.23;;;7.90;86.70;;;;;;5097376;28;20063;-85
2022/04/03 12:50:41;;;;;;;10.23;8.02;;;7.80;86.60;;;;;;5092158;28;20028;-82
2022/04/03 12:53:15;;;;;;;9.98;7.70;;;7.90;86.60;;;;;;5098498;28;20021;-83